createdAt,value
2022-07-26T00:00:36.638Z,1.80
2022-07-26T00:03:41.849Z,1.88
2022-07-26T00:06:46.991Z,2.08
2022-07-26T00:09:51.981Z,2.17
2022-07-26T00:12:57.157Z,2.30
2022-07-26T00:16:05.583Z,2.22
2022-07-26T00:19:13.443Z,1.90
2022-07-26T00:22:31.084Z,1.92
2022-07-26T00:25:36.726Z,2.97
2022-07-26T00:28:42.133Z,2.50
2022-07-26T00:31:49.809Z,2.90
2022-07-26T00:34:55.146Z,2.30
2022-07-26T00:38:00.705Z,1.90
2022-07-26T00:41:07.404Z,2.47
2022-07-26T00:44:12.535Z,2.58
2022-07-26T00:47:20.230Z,2.45
2022-07-26T00:50:25.543Z,2.10
2022-07-26T00:53:30.635Z,2.65
2022-07-26T00:56:38.374Z,2.25
2022-07-26T00:59:43.511Z,2.50
2022-07-26T01:02:51.546Z,2.22
2022-07-26T01:05:56.803Z,2.33
2022-07-26T01:09:03.150Z,2.83
2022-07-26T01:12:09.019Z,2.08
2022-07-26T01:15:16.561Z,2.30
2022-07-26T01:18:24.152Z,2.03
2022-07-26T01:21:34.388Z,2.45
2022-07-26T01:24:39.494Z,2.58
2022-07-26T01:27:45.390Z,2.63
2022-07-26T01:30:50.916Z,2.53
2022-07-26T01:33:55.890Z,2.38
2022-07-26T01:37:04.067Z,2.42
2022-07-26T01:40:10.842Z,2.28
2022-07-26T01:43:15.861Z,2.75
2022-07-26T01:46:21.278Z,2.83
2022-07-26T01:49:26.574Z,2.58
2022-07-26T01:52:35.618Z,3.00
2022-07-26T01:55:40.633Z,2.33
2022-07-26T01:58:45.871Z,2.85
2022-07-26T02:01:51.105Z,3.20
2022-07-26T02:05:02.128Z,2.90
2022-07-26T02:08:09.828Z,2.90
2022-07-26T02:11:15.956Z,2.53
2022-07-26T02:14:25.820Z,2.50
2022-07-26T02:17:31.227Z,3.08
2022-07-26T02:20:36.335Z,2.33
2022-07-26T02:23:43.991Z,2.65
2022-07-26T02:26:50.758Z,3.00
2022-07-26T02:29:55.759Z,2.20
2022-07-26T02:33:03.991Z,2.40
2022-07-26T02:36:11.266Z,2.85
2022-07-26T02:39:18.957Z,2.70
2022-07-26T02:42:24.088Z,2.70
2022-07-26T02:45:29.433Z,2.72
2022-07-26T02:48:34.814Z,3.22
2022-07-26T02:51:40.061Z,2.55
2022-07-26T02:54:48.826Z,3.25
2022-07-26T02:57:57.311Z,2.92
2022-07-26T03:01:02.370Z,3.05
2022-07-26T03:04:08.325Z,2.85
2022-07-26T03:07:13.634Z,2.88
2022-07-26T03:10:25.167Z,2.80
2022-07-26T03:13:30.379Z,3.00
2022-07-26T03:16:35.512Z,2.60
2022-07-26T03:19:43.308Z,2.97
2022-07-26T03:22:57.250Z,2.53
2022-07-26T03:26:05.354Z,2.55
2022-07-26T03:29:10.350Z,2.88
2022-07-26T03:32:15.348Z,3.85
2022-07-26T03:35:20.781Z,3.17
2022-07-26T03:38:25.949Z,3.95
2022-07-26T03:41:34.176Z,3.80
2022-07-26T03:44:39.328Z,3.67
2022-07-26T03:47:45.376Z,3.58
2022-07-26T03:50:56.003Z,2.60
2022-07-26T03:54:00.986Z,3.58
2022-07-26T03:57:06.122Z,3.05
2022-07-26T04:00:13.297Z,3.17
2022-07-26T04:03:18.475Z,2.85
2022-07-26T04:06:23.675Z,2.88
2022-07-26T04:09:29.053Z,3.17
2022-07-26T04:12:39.447Z,3.38
2022-07-26T04:15:44.406Z,2.97
2022-07-26T04:18:49.602Z,3.40
2022-07-26T04:21:54.698Z,2.78
2022-07-26T04:24:59.782Z,3.35
2022-07-26T04:28:07.831Z,2.95
2022-07-26T04:31:13.392Z,3.10
2022-07-26T04:34:21.636Z,3.05
2022-07-26T04:37:26.788Z,3.53
2022-07-26T04:40:33.657Z,3.30
2022-07-26T04:43:42.511Z,2.55
2022-07-26T04:46:47.983Z,3.70
2022-07-26T04:49:55.959Z,2.85
2022-07-26T04:53:01.050Z,2.90
2022-07-26T04:56:07.231Z,3.38
2022-07-26T04:59:18.506Z,2.38
2022-07-26T05:02:26.673Z,3.00
2022-07-26T05:05:33.245Z,2.75
2022-07-26T05:08:38.290Z,2.47
2022-07-26T05:11:43.303Z,2.42
2022-07-26T05:14:50.854Z,2.67
2022-07-26T05:17:57.399Z,2.22
2022-07-26T05:21:05.904Z,2.40
2022-07-26T05:24:12.135Z,2.38
2022-07-26T05:27:17.350Z,3.00
2022-07-26T05:30:27.628Z,2.40
2022-07-26T05:33:34.553Z,2.33
2022-07-26T05:36:39.586Z,2.13
2022-07-26T05:39:44.595Z,2.05
2022-07-26T05:42:49.681Z,1.73
2022-07-26T05:46:01.175Z,2.22
2022-07-26T05:49:09.506Z,1.67
2022-07-26T05:52:14.505Z,1.92
2022-07-26T05:55:19.425Z,1.70
2022-07-26T05:58:24.486Z,1.45
2022-07-26T06:01:34.411Z,1.40
2022-07-26T06:04:39.490Z,1.77
2022-07-26T06:07:44.602Z,1.63
2022-07-26T06:10:49.998Z,1.15
2022-07-26T06:13:56.756Z,1.50
2022-07-26T06:17:04.726Z,1.80
2022-07-26T06:20:11.278Z,1.00
2022-07-26T06:23:16.915Z,1.35
2022-07-26T06:26:23.908Z,1.70
2022-07-26T06:29:32.118Z,1.60
2022-07-26T06:32:41.611Z,1.60
2022-07-26T06:35:46.700Z,1.33
2022-07-26T06:38:51.822Z,1.40
2022-07-26T06:41:56.911Z,2.42
2022-07-26T06:45:02.134Z,1.40
2022-07-26T06:48:10.127Z,1.48
2022-07-26T06:51:15.321Z,1.38
2022-07-26T06:54:20.533Z,1.70
2022-07-26T06:57:25.796Z,1.20
2022-07-26T07:00:30.967Z,1.98
2022-07-26T07:03:38.689Z,1.73
2022-07-26T07:06:43.831Z,1.63
2022-07-26T07:09:50.813Z,1.60
2022-07-26T07:12:55.924Z,1.13
2022-07-26T07:16:00.983Z,1.23
2022-07-26T07:19:08.628Z,1.50
2022-07-26T07:22:14.365Z,1.67
2022-07-26T07:25:27.370Z,1.20
2022-07-26T07:28:38.518Z,1.00
2022-07-26T07:31:48.767Z,1.33
2022-07-26T07:34:57.156Z,1.30
2022-07-26T07:38:04.085Z,1.20
2022-07-26T07:41:11.921Z,0.95
2022-07-26T07:44:17.228Z,1.02
2022-07-26T07:47:22.318Z,0.77
2022-07-26T07:50:30.190Z,1.17
2022-07-26T07:53:35.224Z,0.90
2022-07-26T07:56:40.434Z,1.90
2022-07-26T07:59:45.640Z,1.15
2022-07-26T08:02:50.798Z,1.20
2022-07-26T08:05:58.542Z,1.00
2022-07-26T08:09:04.533Z,1.40
2022-07-26T08:12:12.060Z,1.25
2022-07-26T08:15:17.176Z,1.30
2022-07-26T08:18:26.484Z,1.08
2022-07-26T08:21:39.627Z,1.00
2022-07-26T08:24:45.811Z,1.02
2022-07-26T08:28:09.282Z,0.55
2022-07-26T08:31:16.474Z,0.77
2022-07-26T08:34:22.741Z,0.90
2022-07-26T08:37:30.352Z,0.73
2022-07-26T08:40:36.456Z,0.90
2022-07-26T08:43:51.283Z,1.05
2022-07-26T08:46:58.634Z,0.88
2022-07-26T08:50:04.630Z,1.10
2022-07-26T08:53:21.760Z,0.90
2022-07-26T08:56:26.796Z,0.82
2022-07-26T08:59:33.174Z,0.95
2022-07-26T09:02:43.668Z,0.98
2022-07-26T09:05:49.806Z,0.57
2022-07-26T09:09:12.537Z,0.80
2022-07-26T09:12:21.837Z,0.40
2022-07-26T09:15:29.254Z,0.82
2022-07-26T09:18:34.661Z,0.55
2022-07-26T09:21:40.426Z,0.63
2022-07-26T09:24:49.879Z,0.90
2022-07-26T09:27:55.772Z,0.40
2022-07-26T09:31:06.916Z,0.80
2022-07-26T09:34:12.943Z,0.77
2022-07-26T09:37:19.376Z,0.50
2022-07-26T09:40:33.629Z,0.38
2022-07-26T09:46:54.908Z,0.73
2022-07-26T09:50:19.243Z,0.68
2022-07-26T09:56:44.923Z,0.63
2022-07-26T09:59:50.616Z,0.47
2022-07-26T10:02:56.353Z,0.40
2022-07-26T10:06:02.024Z,0.60
2022-07-26T10:09:08.439Z,0.40
2022-07-26T10:12:18.457Z,0.80
2022-07-26T10:15:46.862Z,1.33
2022-07-26T10:18:52.296Z,0.57
2022-07-26T10:22:30.515Z,0.82
2022-07-26T10:25:50.473Z,0.60
2022-07-26T10:28:55.546Z,0.55
2022-07-26T10:32:18.693Z,0.98
2022-07-26T10:35:33.986Z,0.57
2022-07-26T10:38:41.543Z,0.70
2022-07-26T10:41:49.165Z,0.40
2022-07-26T10:44:54.179Z,0.80
2022-07-26T10:48:17.814Z,0.77
2022-07-26T10:51:28.515Z,0.90
2022-07-26T10:54:56.026Z,0.80
2022-07-26T10:58:01.031Z,0.63
2022-07-26T11:01:08.255Z,0.93
2022-07-26T11:04:21.263Z,1.10
2022-07-26T11:07:26.269Z,1.20
2022-07-26T11:10:36.331Z,0.90
2022-07-26T11:13:41.481Z,0.90
2022-07-26T11:16:48.287Z,0.85
2022-07-26T11:19:53.556Z,0.90
2022-07-26T11:22:58.552Z,0.98
2022-07-26T11:26:14.247Z,0.90
2022-07-26T11:29:38.009Z,1.17
2022-07-26T11:32:55.664Z,1.05
2022-07-26T11:36:00.673Z,0.95
2022-07-26T11:39:07.189Z,1.70
2022-07-26T11:42:19.555Z,1.10
2022-07-26T11:45:24.898Z,0.60
2022-07-26T11:48:32.255Z,0.90
2022-07-26T11:51:37.232Z,1.02
2022-07-26T11:54:47.723Z,0.70
2022-07-26T11:57:55.386Z,1.00
2022-07-26T12:01:00.630Z,1.85
2022-07-26T12:04:05.809Z,1.00
2022-07-26T12:07:15.000Z,1.73
2022-07-26T12:10:19.994Z,1.42
2022-07-26T12:13:27.491Z,1.05
2022-07-26T12:16:46.855Z,0.85
2022-07-26T12:19:51.856Z,0.60
2022-07-26T12:23:00.333Z,0.60
2022-07-26T12:26:26.570Z,0.70
2022-07-26T12:29:36.401Z,0.80
2022-07-26T12:32:43.549Z,1.23
2022-07-26T12:35:48.696Z,1.13
2022-07-26T12:38:54.099Z,1.50
2022-07-26T12:41:59.137Z,2.85
2022-07-26T12:45:08.730Z,1.25
2022-07-26T12:48:14.186Z,0.88
2022-07-26T12:51:19.159Z,1.63
2022-07-26T12:54:29.165Z,1.13
2022-07-26T12:57:36.825Z,1.27
2022-07-26T13:00:44.738Z,1.75
2022-07-26T13:03:49.790Z,1.58
2022-07-26T13:06:54.784Z,1.73
2022-07-26T13:10:30.504Z,1.65
2022-07-26T13:13:25.555Z,1.63
2022-07-26T13:16:33.107Z,1.35
2022-07-26T13:19:39.457Z,1.70
2022-07-26T13:22:44.470Z,2.00
2022-07-26T13:25:49.867Z,1.88
2022-07-26T13:28:55.154Z,1.55
2022-07-26T13:32:03.778Z,1.42
2022-07-26T13:35:10.181Z,2.15
2022-07-26T13:38:19.215Z,2.10
2022-07-26T13:41:24.605Z,1.38
2022-07-26T13:44:29.690Z,1.50
2022-07-26T13:47:37.815Z,1.45
2022-07-26T13:50:43.207Z,1.90
2022-07-26T13:53:52.344Z,1.80
2022-07-26T13:57:01.430Z,1.80
2022-07-26T14:00:08.114Z,1.60
2022-07-26T14:03:15.996Z,1.45
2022-07-26T14:06:21.056Z,1.83
2022-07-26T14:09:26.805Z,1.60
2022-07-26T14:12:32.086Z,1.77
2022-07-26T14:15:37.470Z,1.52
2022-07-26T14:18:47.957Z,1.38
2022-07-26T14:21:59.220Z,1.65
2022-07-26T14:25:06.059Z,1.42
2022-07-26T14:28:11.074Z,2.10
2022-07-26T14:31:16.483Z,1.60
2022-07-26T14:34:27.266Z,1.50
2022-07-26T14:37:43.762Z,1.35
2022-07-26T14:40:51.523Z,1.00
2022-07-26T14:44:03.216Z,1.60
2022-07-26T14:47:08.818Z,1.92
2022-07-26T14:50:17.550Z,1.63
2022-07-26T14:53:25.572Z,1.05
2022-07-26T14:56:33.409Z,1.20
2022-07-26T14:59:38.596Z,1.45
2022-07-26T15:02:45.586Z,1.70
2022-07-26T15:05:53.403Z,1.23
2022-07-26T15:08:58.546Z,2.00
2022-07-26T15:12:03.738Z,1.30
2022-07-26T15:15:10.979Z,2.00
2022-07-26T15:18:16.491Z,1.63
2022-07-26T15:21:24.287Z,1.25
2022-07-26T15:24:29.575Z,1.05
2022-07-26T15:27:34.625Z,1.45
2022-07-26T15:30:39.911Z,1.10
2022-07-26T15:33:44.891Z,1.30
2022-07-26T15:36:52.575Z,0.63
2022-07-26T15:39:57.877Z,1.88
2022-07-26T15:43:03.067Z,1.02
2022-07-26T15:46:08.468Z,1.75
2022-07-26T15:49:13.794Z,1.10
2022-07-26T15:52:24.801Z,1.10
2022-07-26T15:55:29.892Z,1.25
2022-07-26T15:58:34.982Z,1.35
2022-07-26T16:01:40.396Z,1.33
2022-07-26T16:04:46.464Z,1.20
2022-07-26T16:07:55.052Z,0.98
2022-07-26T16:11:00.518Z,1.20
2022-07-26T16:14:05.710Z,1.90
2022-07-26T16:17:10.840Z,1.30
2022-07-26T16:20:16.405Z,0.98
2022-07-26T16:23:26.513Z,0.75
2022-07-26T16:26:31.690Z,1.50
2022-07-26T16:29:36.782Z,0.93
2022-07-26T16:32:45.169Z,1.23
2022-07-26T16:35:50.260Z,1.35
2022-07-26T16:38:58.138Z,1.20
2022-07-26T16:42:07.124Z,1.00
2022-07-26T16:45:13.258Z,1.13
2022-07-26T16:48:18.861Z,1.17
2022-07-26T16:51:24.003Z,1.60
2022-07-26T16:54:32.996Z,1.15
2022-07-26T16:57:38.256Z,1.23
2022-07-26T17:00:43.719Z,1.30
2022-07-26T17:03:48.922Z,1.80
2022-07-26T17:07:23.185Z,1.35
2022-07-26T17:10:25.704Z,1.48
2022-07-26T17:13:30.755Z,1.38
2022-07-26T17:16:38.560Z,1.10
2022-07-26T17:19:43.757Z,1.70
2022-07-26T17:22:51.774Z,1.90
2022-07-26T17:25:59.892Z,1.20
2022-07-26T17:29:06.369Z,1.42
2022-07-26T17:32:11.826Z,1.10
2022-07-26T17:35:17.449Z,1.02
2022-07-26T17:38:24.858Z,1.10
2022-07-26T17:41:34.655Z,0.90
2022-07-26T17:44:40.319Z,0.90
2022-07-26T17:47:45.395Z,1.40
2022-07-26T17:50:50.775Z,1.10
2022-07-26T17:53:55.814Z,0.93
2022-07-26T17:57:03.526Z,1.27
2022-07-26T18:00:09.805Z,1.08
2022-07-26T18:03:15.901Z,1.08
2022-07-26T18:06:21.494Z,0.85
2022-07-26T18:09:26.700Z,0.95
2022-07-26T18:12:34.426Z,1.10
2022-07-26T18:15:39.764Z,1.08
2022-07-26T18:18:44.860Z,0.95
2022-07-26T18:21:49.920Z,1.00
2022-07-26T18:24:54.876Z,0.82
2022-07-26T18:28:06.852Z,1.13
2022-07-26T18:31:12.318Z,1.00
2022-07-26T18:34:17.310Z,0.73
2022-07-26T18:37:22.516Z,0.73
2022-07-26T18:40:28.624Z,0.95
2022-07-26T18:43:36.314Z,0.98
2022-07-26T18:46:41.484Z,1.23
2022-07-26T18:49:46.544Z,0.82
2022-07-26T18:52:52.451Z,1.25
2022-07-26T18:55:57.598Z,0.90
2022-07-26T18:59:06.753Z,1.00
2022-07-26T19:02:11.790Z,0.80
2022-07-26T19:05:17.684Z,0.80
2022-07-26T19:08:22.823Z,1.00
2022-07-26T19:11:29.676Z,0.98
2022-07-26T19:14:37.518Z,0.82
2022-07-26T19:17:45.246Z,1.20
2022-07-26T19:20:50.319Z,1.15
2022-07-26T19:23:55.304Z,1.20
2022-07-26T19:27:01.311Z,1.27
2022-07-26T19:30:10.930Z,1.17
2022-07-26T19:33:16.943Z,0.95
2022-07-26T19:36:26.455Z,0.88
2022-07-26T19:39:31.862Z,1.15
2022-07-26T19:42:36.886Z,1.00
2022-07-26T19:45:44.659Z,0.90
2022-07-26T19:48:50.081Z,1.20
2022-07-26T19:51:55.180Z,1.67
2022-07-26T19:55:00.401Z,1.02
2022-07-26T19:58:05.352Z,1.15
2022-07-26T20:01:13.002Z,1.20
2022-07-26T20:04:18.033Z,1.25
2022-07-26T20:07:23.077Z,1.02
2022-07-26T20:10:32.009Z,1.10
2022-07-26T20:13:37.350Z,0.75
2022-07-26T20:16:44.986Z,1.00
2022-07-26T20:19:50.007Z,0.82
2022-07-26T20:22:55.063Z,1.15
2022-07-26T20:26:00.164Z,1.08
2022-07-26T20:29:05.337Z,1.27
2022-07-26T20:32:12.988Z,1.25
2022-07-26T20:35:18.059Z,1.02
2022-07-26T20:38:23.163Z,0.90
2022-07-26T20:41:28.105Z,1.08
2022-07-26T20:44:39.572Z,0.73
2022-07-26T20:47:47.323Z,1.08
2022-07-26T20:50:52.656Z,1.25
2022-07-26T20:53:58.148Z,0.68
2022-07-26T20:57:04.370Z,0.80
2022-07-26T21:00:12.040Z,1.00
2022-07-26T21:03:19.638Z,1.40
2022-07-26T21:06:25.630Z,1.17
2022-07-26T21:09:34.782Z,1.17
2022-07-26T21:12:39.744Z,1.17
2022-07-26T21:15:44.882Z,1.83
2022-07-26T21:18:53.258Z,1.33
2022-07-26T21:22:00.490Z,0.88
2022-07-26T21:25:05.533Z,1.05
2022-07-26T21:28:10.678Z,1.10
2022-07-26T21:31:15.718Z,1.10
2022-07-26T21:34:24.902Z,1.30
2022-07-26T21:37:30.011Z,2.05
2022-07-26T21:40:34.978Z,1.20
2022-07-26T21:43:40.522Z,1.70
2022-07-26T21:46:48.515Z,1.60
2022-07-26T21:49:56.136Z,1.58
2022-07-26T21:53:01.331Z,1.70
2022-07-26T21:56:07.492Z,0.82
2022-07-26T21:59:13.015Z,1.50
2022-07-26T22:02:21.077Z,1.60
2022-07-26T22:05:38.325Z,1.20
2022-07-26T22:08:43.385Z,1.42
2022-07-26T22:11:48.333Z,1.40
2022-07-26T22:14:53.322Z,1.20
2022-07-26T22:18:00.267Z,1.08
2022-07-26T22:21:08.251Z,1.35
2022-07-26T22:24:13.287Z,1.27
2022-07-26T22:27:18.275Z,1.50
2022-07-26T22:30:24.398Z,1.40
2022-07-26T22:33:29.491Z,1.10
2022-07-26T22:36:39.914Z,1.38
2022-07-26T22:39:50.121Z,1.80
2022-07-26T22:42:58.555Z,1.15
2022-07-26T22:46:03.686Z,1.48
2022-07-26T22:49:10.902Z,1.20
2022-07-26T22:52:22.747Z,1.20
2022-07-26T22:55:27.869Z,1.45
2022-07-26T22:58:33.087Z,1.42
2022-07-26T23:01:39.401Z,1.42
2022-07-26T23:04:44.383Z,1.35
2022-07-26T23:07:52.022Z,1.20
2022-07-26T23:10:57.078Z,1.40
2022-07-26T23:14:02.284Z,1.27
2022-07-26T23:17:07.259Z,1.05
2022-07-26T23:20:13.908Z,1.13
2022-07-26T23:23:21.514Z,1.30
2022-07-26T23:26:26.534Z,1.08
2022-07-26T23:29:31.679Z,1.20
2022-07-26T23:32:36.638Z,1.05
2022-07-26T23:35:41.706Z,1.45
2022-07-26T23:38:49.303Z,1.50
2022-07-26T23:41:54.270Z,1.30
2022-07-26T23:44:59.358Z,1.33
2022-07-26T23:48:04.350Z,1.30
2022-07-26T23:51:09.338Z,1.50
2022-07-26T23:54:16.951Z,1.40
2022-07-26T23:57:23.029Z,1.48
